Cortez, CO (81321)

5:36 PM MDT on August 03, 2015 (GMT -0600)
Kelly Place B&B, McElmo Canyon | | Change Station
CLOSE
Current Station
Personal Weather Station
Location: Cortez, CO
Elevation: 5522 ft
Nearby Weather Stations

Elev 5522 ft 37.34 °N, 108.79 °W | Updated 18 seconds ago

Clear
Clear
93.4 °F
Feels Like 91 °F
N
3.8
Wind Variable Wind from NW
Gusts 5.4 mph

Today
High -- | Low -- °F
--% Chance of Precip.
Yesterday
High -- | Low -- °F
Precip. -- in
6:20 AM 8:20 PM
Waning Gibbous, 83% visible
Pressure 29.91 in
Visibility 10.0 miles
Clouds Clear
Heat Index 91 °F
Dew Point 54 °F
Humidity 27%
Rainfall 0.04 in
Snow Depth Not available.
UV 6 out of 12
Pollen 4.00 out of 12
Air Quality Not available.
Flu Activity Not available.
METAR KCEZ 032253Z AUTO 30016G23KT 10SM CLR 28/08 A3015 RMK AO2 SLP129 T02780078

More Conditions Fewer Conditions

Pressure 29.91 in
Visibility 10.0 miles
Clouds Clear
Heat Index 91 °F
Dew Point 54 °F
Humidity 27%
Rainfall 0.04 in
Snow Depth Not available.
UV 6 out of 12
Pollen 4.00 out of 12
Air Quality Not available.
Flu Activity Not available.
METAR KCEZ 032253Z AUTO 30016G23KT 10SM CLR 28/08 A3015 RMK AO2 SLP129 T02780078

More Conditions Fewer Conditions

10-Day Weather Forecast

×

Almanac

Astronomy

Aug. 03, 2015 Rise Set
Actual Time
Civil Twilight
Nautical Twilight
Astronomical Twilight
Moon
Length of Visible Light
Length of Day
Tomorrow will be .
, % of the Moon is Illuminated

Today's Extremes

State Highs State Lows

Community

WunderPhotos

Upload Photos

1,843,790 photos uploaded!

WunderBlogs® & News

Nearby

Air Quality

  Air Quality AQ Index Pollutant
Not available.

Snow Depth

Station Depth Elevation

Earthquake Activity

City Distance Mag. Time & Date
Minimum magnitude displayed is 2.5.

Coastal Water Temperatures

Place Temperature

Stations

Nearby Weather Stations

Station Location Temp. Windchill Dew Point Humidity Wind Precip. Elev Updated Type